createdAt,value
2022-11-22T00:01:12.314Z,6.13
2022-11-22T00:03:40.307Z,6.11
2022-11-22T00:06:08.241Z,6.18
2022-11-22T00:08:36.202Z,6.29
2022-11-22T00:11:04.132Z,6.32
2022-11-22T00:13:32.191Z,6.33
2022-11-22T00:16:01.186Z,6.31
2022-11-22T00:18:31.171Z,6.43
2022-11-22T00:21:05.317Z,6.31
2022-11-22T00:23:33.270Z,6.24
2022-11-22T00:26:01.229Z,6.31
2022-11-22T00:28:29.190Z,6.37
2022-11-22T00:30:57.134Z,6.34
2022-11-22T00:33:25.168Z,6.42
2022-11-22T00:35:54.503Z,6.47
2022-11-22T00:38:22.514Z,6.40
2022-11-22T00:40:50.697Z,6.39
2022-11-22T00:43:18.970Z,6.44
2022-11-22T00:45:46.951Z,6.42
2022-11-22T00:48:14.932Z,6.24
2022-11-22T00:50:42.878Z,6.37
2022-11-22T00:53:12.204Z,6.41
2022-11-22T00:55:40.158Z,6.31
2022-11-22T00:58:08.112Z,6.40
2022-11-22T01:00:36.075Z,6.57
2022-11-22T01:03:04.261Z,6.61
2022-11-22T01:05:32.227Z,6.60
2022-11-22T01:08:00.372Z,6.60
2022-11-22T01:10:29.713Z,6.56
2022-11-22T01:12:58.747Z,6.50
2022-11-22T01:15:26.724Z,6.51
2022-11-22T01:17:54.696Z,6.52
2022-11-22T01:20:23.033Z,6.53
2022-11-22T01:22:51.238Z,6.51
2022-11-22T01:25:19.298Z,6.51
2022-11-22T01:27:51.041Z,6.56
2022-11-22T01:30:19.600Z,6.55
2022-11-22T01:32:47.627Z,6.60
2022-11-22T01:35:15.693Z,6.49
2022-11-22T01:37:43.668Z,6.53
2022-11-22T01:40:12.573Z,6.48
2022-11-22T01:42:45.421Z,6.40
2022-11-22T01:45:45.600Z,6.46
2022-11-22T01:48:39.544Z,6.31
2022-11-22T01:51:22.147Z,6.41
2022-11-22T01:53:50.442Z,6.44
2022-11-22T01:56:22.172Z,6.39
2022-11-22T01:58:56.625Z,6.25
2022-11-22T02:01:26.115Z,6.29
2022-11-22T02:03:57.617Z,6.25
2022-11-22T02:06:29.841Z,6.21
2022-11-22T02:09:04.698Z,6.28
2022-11-22T02:11:34.400Z,6.37
2022-11-22T02:14:02.809Z,6.49
2022-11-22T02:16:32.941Z,6.47
2022-11-22T02:19:00.884Z,6.53
2022-11-22T02:21:30.340Z,6.27
2022-11-22T02:24:07.327Z,6.29
2022-11-22T02:26:37.422Z,6.28
2022-11-22T02:29:08.928Z,6.37
2022-11-22T02:31:41.101Z,6.38
2022-11-22T02:34:09.356Z,6.52
2022-11-22T02:36:42.661Z,6.57
2022-11-22T02:39:12.604Z,6.55
2022-11-22T02:41:42.042Z,6.62
2022-11-22T02:44:11.833Z,6.63
2022-11-22T02:46:48.696Z,6.42
2022-11-22T02:49:19.212Z,6.46
2022-11-22T02:51:47.563Z,6.42
2022-11-22T02:54:15.712Z,6.53
2022-11-22T02:56:45.113Z,6.63
2022-11-22T02:59:13.090Z,6.82
2022-11-22T03:01:41.429Z,6.81
2022-11-22T03:04:09.408Z,6.73
2022-11-22T03:06:37.353Z,6.72
2022-11-22T03:09:05.422Z,6.52
2022-11-22T03:11:33.348Z,6.56
2022-11-22T03:14:02.672Z,6.51
2022-11-22T03:16:31.826Z,6.52
2022-11-22T03:18:59.797Z,6.44
2022-11-22T03:21:27.805Z,6.58
2022-11-22T03:23:56.131Z,6.54
2022-11-22T03:26:24.075Z,6.70
2022-11-22T03:28:52.150Z,6.58
2022-11-22T03:31:21.537Z,6.46
2022-11-22T03:33:49.486Z,6.51
2022-11-22T03:36:17.486Z,6.33
2022-11-22T03:38:45.435Z,6.33
2022-11-22T03:41:13.443Z,6.31
2022-11-22T03:43:41.388Z,6.24
2022-11-22T03:46:15.357Z,5.96
2022-11-22T03:48:44.702Z,5.96
2022-11-22T03:51:13.045Z,5.73
2022-11-22T03:53:41.096Z,5.86
2022-11-22T03:56:09.075Z,5.92
2022-11-22T03:58:37.244Z,5.87
2022-11-22T04:01:05.340Z,5.91
2022-11-22T04:03:33.389Z,5.97
2022-11-22T04:06:02.765Z,5.88
2022-11-22T04:08:30.735Z,5.62
2022-11-22T04:10:58.700Z,5.74
2022-11-22T04:13:47.397Z,5.49
2022-11-22T04:16:14.489Z,5.41
2022-11-22T04:18:42.447Z,5.64
2022-11-22T04:21:25.621Z,5.66
2022-11-22T04:24:07.383Z,5.56
2022-11-22T04:26:35.330Z,5.30
2022-11-22T04:29:09.723Z,5.32
2022-11-22T04:31:55.648Z,5.13
2022-11-22T04:34:24.415Z,5.25
2022-11-22T04:36:53.794Z,5.32
2022-11-22T04:39:21.834Z,5.28
2022-11-22T04:42:10.395Z,5.27
2022-11-22T04:44:43.202Z,5.24
2022-11-22T04:47:12.292Z,5.32
2022-11-22T04:49:40.681Z,5.32
2022-11-22T04:52:27.983Z,5.37
2022-11-22T04:54:55.922Z,5.35
2022-11-22T04:57:23.855Z,5.35
2022-11-22T04:59:51.781Z,5.38
2022-11-22T05:02:19.708Z,5.39
2022-11-22T05:04:50.670Z,5.42
2022-11-22T05:07:20.355Z,5.35
2022-11-22T05:09:48.351Z,5.09
2022-11-22T05:12:16.306Z,4.97
2022-11-22T05:14:44.244Z,5.09
2022-11-22T05:17:13.537Z,5.13
2022-11-22T05:19:47.779Z,5.11
2022-11-22T05:22:17.462Z,5.00
2022-11-22T05:24:45.772Z,4.69
2022-11-22T05:27:13.713Z,4.55
2022-11-22T05:29:41.695Z,4.61
2022-11-22T05:32:09.642Z,4.54
2022-11-22T05:34:37.580Z,4.66
2022-11-22T05:37:05.506Z,4.58
2022-11-22T05:39:33.445Z,4.67
2022-11-22T05:42:05.950Z,4.78
2022-11-22T05:44:34.172Z,4.78
2022-11-22T05:47:02.113Z,4.87
2022-11-22T05:49:30.400Z,4.89
2022-11-22T05:51:58.558Z,4.86
2022-11-22T05:54:26.536Z,4.79
2022-11-22T05:56:54.554Z,4.89
2022-11-22T05:59:24.036Z,4.74
2022-11-22T06:01:52.087Z,4.50
2022-11-22T06:04:20.244Z,4.72
2022-11-22T06:06:48.405Z,4.67
2022-11-22T06:09:16.420Z,4.70
2022-11-22T06:11:44.363Z,4.76
2022-11-22T06:14:12.297Z,4.95
2022-11-22T06:16:41.626Z,5.06
2022-11-22T06:19:09.768Z,5.21
2022-11-22T06:21:37.729Z,5.12
2022-11-22T06:24:06.285Z,5.08
2022-11-22T06:26:39.012Z,5.29
2022-11-22T06:29:07.638Z,5.47
2022-11-22T06:31:35.623Z,5.58
2022-11-22T06:34:05.260Z,5.63
2022-11-22T06:36:35.135Z,5.46
2022-11-22T06:39:03.898Z,5.70
2022-11-22T06:41:34.954Z,5.92
2022-11-22T06:44:06.702Z,6.07
2022-11-22T06:46:35.156Z,6.04
2022-11-22T06:49:05.040Z,6.16
2022-11-22T06:51:33.412Z,6.30
2022-11-22T06:54:01.376Z,6.37
2022-11-22T06:56:30.998Z,6.45
2022-11-22T06:58:59.496Z,6.62
2022-11-22T07:01:29.319Z,6.71
2022-11-22T07:03:59.307Z,6.83
2022-11-22T07:06:30.596Z,6.92
2022-11-22T07:09:00.187Z,7.01
2022-11-22T07:11:29.645Z,7.17
2022-11-22T07:14:05.331Z,7.29
2022-11-22T07:16:36.207Z,7.42
2022-11-22T07:19:04.523Z,7.48
2022-11-22T07:21:33.871Z,7.54
2022-11-22T07:24:01.797Z,7.61
2022-11-22T07:26:29.735Z,7.73
2022-11-22T07:28:58.042Z,7.87
2022-11-22T07:31:26.263Z,7.91
2022-11-22T07:33:54.187Z,8.05
2022-11-22T07:36:23.456Z,8.06
2022-11-22T07:38:52.877Z,8.06
2022-11-22T07:41:22.248Z,7.95
2022-11-22T07:43:50.219Z,7.98
2022-11-22T07:46:23.429Z,8.21
2022-11-22T07:48:51.550Z,8.29
2022-11-22T07:51:19.636Z,8.37
2022-11-22T07:53:47.922Z,8.40
2022-11-22T07:56:17.424Z,8.58
2022-11-22T07:58:45.632Z,8.60
2022-11-22T08:01:15.307Z,8.71
2022-11-22T08:03:43.439Z,8.76
2022-11-22T08:06:13.347Z,8.88
2022-11-22T08:08:41.764Z,9.00
2022-11-22T08:11:10.196Z,9.14
2022-11-22T08:13:39.574Z,9.08
2022-11-22T08:16:11.100Z,9.29
2022-11-22T08:18:40.230Z,9.27
2022-11-22T08:21:09.992Z,9.30
2022-11-22T08:23:38.435Z,9.30
2022-11-22T08:26:08.149Z,9.32
2022-11-22T08:28:36.491Z,9.39
2022-11-22T08:31:08.623Z,9.52
2022-11-22T08:33:36.614Z,9.52
2022-11-22T08:36:04.948Z,9.56
2022-11-22T08:38:33.105Z,9.55
2022-11-22T08:41:01.030Z,9.56
2022-11-22T08:43:28.956Z,9.51
2022-11-22T08:45:58.009Z,9.50
2022-11-22T08:48:28.372Z,9.41
2022-11-22T08:50:58.313Z,9.45
2022-11-22T08:53:27.465Z,9.67
2022-11-22T08:55:56.208Z,9.75
2022-11-22T08:58:24.217Z,9.62
2022-11-22T09:00:52.160Z,9.73
2022-11-22T09:03:20.185Z,9.79
2022-11-22T09:08:40.450Z,9.82
2022-11-22T09:11:12.333Z,9.83
2022-11-22T09:13:40.729Z,9.68
2022-11-22T09:16:11.121Z,9.63
2022-11-22T09:18:39.476Z,9.61
2022-11-22T09:21:10.395Z,9.72
2022-11-22T09:23:39.130Z,9.90
2022-11-22T09:26:08.553Z,10.04
2022-11-22T09:28:37.118Z,10.18
2022-11-22T09:31:07.048Z,10.28
2022-11-22T09:33:35.779Z,10.21
2022-11-22T09:36:06.244Z,10.13
2022-11-22T09:38:36.905Z,10.22
2022-11-22T09:41:19.672Z,10.28
2022-11-22T09:43:57.640Z,10.32
2022-11-22T09:46:40.703Z,10.31
2022-11-22T09:49:28.832Z,10.26
2022-11-22T09:52:05.124Z,10.23
2022-11-22T09:54:41.741Z,10.26
2022-11-22T09:57:17.608Z,10.31
2022-11-22T09:59:48.565Z,10.39
2022-11-22T10:02:23.635Z,10.54
2022-11-22T10:04:57.712Z,10.56
2022-11-22T10:07:28.845Z,10.64
2022-11-22T10:10:05.344Z,10.56
2022-11-22T10:12:39.856Z,10.62
2022-11-22T10:15:17.011Z,10.76
2022-11-22T10:17:54.344Z,10.70
2022-11-22T10:20:23.869Z,10.66
2022-11-22T10:22:52.069Z,10.68
2022-11-22T10:25:23.261Z,10.72
2022-11-22T10:27:57.554Z,10.85
2022-11-22T10:30:33.656Z,10.87
2022-11-22T10:33:14.298Z,10.82
2022-11-22T10:36:06.523Z,10.79
2022-11-22T10:38:57.586Z,10.52
2022-11-22T10:41:45.208Z,10.26
2022-11-22T10:44:25.432Z,10.55
2022-11-22T10:47:03.195Z,10.58
2022-11-22T10:49:44.781Z,10.49
2022-11-22T10:52:23.308Z,10.59
2022-11-22T10:54:59.636Z,10.62
2022-11-22T10:57:37.291Z,10.74
2022-11-22T11:00:19.638Z,10.43
2022-11-22T11:03:15.084Z,10.51
2022-11-22T11:09:03.131Z,10.53
2022-11-22T11:11:31.440Z,10.40
2022-11-22T11:14:05.876Z,10.57
2022-11-22T11:16:37.364Z,10.66
2022-11-22T11:19:16.989Z,10.73
2022-11-22T11:21:44.977Z,10.53
2022-11-22T11:24:16.003Z,10.69
2022-11-22T11:26:52.242Z,10.80
2022-11-22T11:29:39.505Z,10.80
2022-11-22T11:32:13.161Z,10.78
2022-11-22T11:34:44.032Z,10.75
2022-11-22T11:37:23.020Z,10.63
2022-11-22T11:39:51.172Z,10.73
2022-11-22T11:42:25.479Z,10.64
2022-11-22T11:44:55.255Z,10.77
2022-11-22T11:47:34.565Z,10.85
2022-11-22T11:50:02.754Z,10.84
2022-11-22T11:52:31.739Z,10.80
2022-11-22T11:55:03.442Z,10.79
2022-11-22T11:57:34.875Z,10.79
2022-11-22T12:00:07.408Z,10.65
2022-11-22T12:02:40.202Z,10.59
2022-11-22T12:05:25.775Z,10.51
2022-11-22T12:07:53.913Z,10.56
2022-11-22T12:10:32.065Z,10.54
2022-11-22T12:13:05.137Z,10.73
2022-11-22T12:15:43.672Z,10.84
2022-11-22T12:18:31.283Z,10.88
2022-11-22T12:21:16.929Z,10.85
2022-11-22T12:23:51.751Z,10.74
2022-11-22T12:26:20.270Z,10.81
2022-11-22T12:28:49.004Z,10.76
2022-11-22T12:31:29.517Z,10.84
2022-11-22T12:33:59.996Z,10.94
2022-11-22T12:36:34.908Z,10.92
2022-11-22T12:39:05.039Z,10.94
2022-11-22T12:41:35.355Z,10.84
2022-11-22T12:44:08.003Z,10.87
2022-11-22T12:46:40.619Z,10.89
2022-11-22T12:49:16.593Z,10.86
2022-11-22T12:51:48.492Z,10.62
2022-11-22T12:54:21.092Z,10.82
2022-11-22T12:56:53.024Z,10.93
2022-11-22T12:59:33.659Z,11.06
2022-11-22T13:02:14.239Z,11.20
2022-11-22T13:04:57.363Z,11.13
2022-11-22T13:07:34.281Z,11.15
2022-11-22T13:10:08.413Z,11.21
2022-11-22T13:12:38.159Z,11.06
2022-11-22T13:15:06.824Z,10.91
2022-11-22T13:17:38.760Z,10.88
2022-11-22T13:20:14.457Z,10.93
2022-11-22T13:22:53.156Z,10.81
2022-11-22T13:25:41.890Z,10.83
2022-11-22T13:28:15.355Z,11.14
2022-11-22T13:31:21.308Z,11.10
2022-11-22T13:33:57.838Z,10.96
2022-11-22T13:36:41.442Z,10.99
2022-11-22T13:39:17.122Z,10.91
2022-11-22T13:41:53.904Z,10.80
2022-11-22T13:44:36.329Z,10.66
2022-11-22T13:47:05.667Z,10.85
2022-11-22T13:49:41.233Z,10.80
2022-11-22T13:52:51.045Z,10.94
2022-11-22T13:55:40.324Z,10.98
2022-11-22T13:58:52.286Z,11.09
2022-11-22T14:01:57.297Z,11.02
2022-11-22T14:04:40.838Z,11.07
2022-11-22T14:07:27.511Z,10.82
2022-11-22T14:09:57.467Z,10.79
2022-11-22T14:12:53.164Z,10.85
2022-11-22T14:15:49.205Z,10.83
2022-11-22T14:18:37.623Z,10.79
2022-11-22T14:21:13.710Z,10.81
2022-11-22T14:23:54.716Z,10.80
2022-11-22T14:26:31.195Z,10.57
2022-11-22T14:29:47.157Z,10.62
2022-11-22T14:32:20.624Z,10.23
2022-11-22T14:35:21.493Z,10.20
2022-11-22T14:38:19.066Z,10.27
2022-11-22T14:40:48.088Z,10.24
2022-11-22T14:43:26.702Z,10.20
2022-11-22T14:45:59.527Z,10.22
2022-11-22T14:48:33.159Z,10.20
2022-11-22T14:51:08.317Z,10.15
2022-11-22T14:53:46.904Z,10.12
2022-11-22T14:56:18.168Z,9.98
2022-11-22T14:58:58.255Z,9.90
2022-11-22T15:02:07.791Z,9.89
2022-11-22T15:09:12.527Z,9.79
2022-11-22T15:09:20.356Z,9.85
2022-11-22T15:11:33.234Z,9.64
2022-11-22T15:14:32.117Z,9.60
2022-11-22T15:57:37.349Z,8.68
2022-11-22T16:00:11.964Z,8.78
2022-11-22T16:02:50.194Z,9.03
2022-11-22T16:06:06.818Z,9.13
2022-11-22T16:08:15.883Z,9.21
2022-11-22T16:10:50.181Z,9.35
2022-11-22T16:13:27.665Z,9.27
2022-11-22T16:16:18.864Z,9.32
2022-11-22T16:18:48.929Z,9.43
2022-11-22T16:21:27.824Z,9.27
2022-11-22T16:24:17.986Z,9.24
2022-11-22T16:26:56.312Z,9.41
2022-11-22T16:29:32.338Z,9.36
2022-11-22T16:32:02.491Z,9.33
2022-11-22T16:34:31.861Z,9.26
2022-11-22T16:37:00.131Z,9.32
2022-11-22T16:39:28.236Z,9.12
2022-11-22T16:41:56.476Z,9.13
2022-11-22T16:44:24.426Z,9.05
2022-11-22T16:46:52.348Z,9.01
2022-11-22T16:49:21.711Z,9.14
2022-11-22T16:51:52.235Z,9.07
2022-11-22T16:54:23.912Z,9.04
2022-11-22T16:56:51.906Z,9.11
2022-11-22T16:59:19.853Z,9.04
2022-11-22T17:01:47.798Z,9.08
2022-11-22T17:04:22.939Z,8.96
2022-11-22T17:06:52.754Z,9.06
2022-11-22T17:09:21.049Z,9.12
2022-11-22T17:11:49.077Z,9.04
2022-11-22T17:14:18.337Z,9.07
2022-11-22T17:16:46.918Z,9.02
2022-11-22T17:19:45.440Z,9.08
2022-11-22T17:22:07.119Z,9.05
2022-11-22T17:24:35.321Z,9.08
2022-11-22T17:27:03.251Z,9.08
2022-11-22T17:32:19.456Z,9.10
2022-11-22T17:34:47.407Z,9.24
2022-11-22T17:37:16.803Z,9.00
2022-11-22T17:39:44.745Z,9.05
2022-11-22T17:42:13.336Z,9.14
2022-11-22T17:44:41.260Z,9.10
2022-11-22T17:47:09.202Z,9.24
2022-11-22T17:49:37.164Z,9.21
2022-11-22T17:52:05.124Z,9.32
2022-11-22T17:54:34.491Z,9.31
2022-11-22T17:57:02.416Z,9.21
2022-11-22T17:59:30.696Z,9.24
2022-11-22T18:01:59.468Z,9.23
2022-11-22T18:04:27.451Z,9.13
2022-11-22T18:06:55.404Z,8.99
2022-11-22T18:09:23.316Z,9.19
2022-11-22T18:11:52.616Z,9.25
2022-11-22T18:14:20.529Z,9.35
2022-11-22T18:16:48.454Z,9.34
2022-11-22T18:19:16.689Z,9.30
2022-11-22T18:21:44.596Z,9.18
2022-11-22T18:24:12.724Z,9.33
2022-11-22T18:26:41.565Z,9.19
2022-11-22T18:32:01.476Z,9.30
2022-11-22T18:34:30.259Z,9.13
2022-11-22T18:37:01.979Z,8.99
2022-11-22T18:39:32.637Z,9.04
2022-11-22T18:42:00.914Z,8.98
2022-11-22T18:44:30.341Z,8.86
2022-11-22T18:46:58.280Z,8.74
2022-11-22T18:49:26.310Z,8.62
2022-11-22T18:51:54.462Z,8.63
2022-11-22T18:54:22.952Z,8.50
2022-11-22T18:56:51.128Z,8.43
2022-11-22T18:59:19.392Z,8.37
2022-11-22T19:01:48.718Z,8.48
2022-11-22T19:04:17.349Z,8.67
2022-11-22T19:06:45.970Z,8.58
2022-11-22T19:09:13.998Z,8.54
2022-11-22T19:11:42.023Z,8.54
2022-11-22T19:14:10.279Z,8.45
2022-11-22T19:16:38.245Z,8.41
2022-11-22T19:19:08.463Z,8.51
2022-11-22T19:21:36.407Z,8.57
2022-11-22T19:24:04.681Z,8.60
2022-11-22T19:26:32.628Z,8.56
2022-11-22T19:29:02.743Z,8.56
2022-11-22T19:31:31.579Z,8.57
2022-11-22T19:34:00.466Z,8.66
2022-11-22T19:36:33.640Z,8.75
2022-11-22T19:39:02.607Z,8.55
2022-11-22T19:41:31.114Z,8.31
2022-11-22T19:43:59.435Z,8.36
2022-11-22T19:46:27.586Z,8.62
2022-11-22T19:48:57.000Z,8.50
2022-11-22T19:51:26.422Z,8.60
2022-11-22T19:53:58.854Z,8.81
2022-11-22T19:56:30.326Z,8.88
2022-11-22T19:58:59.824Z,8.99
2022-11-22T20:01:29.619Z,9.02
2022-11-22T20:04:00.394Z,8.90
2022-11-22T20:06:28.983Z,8.99
2022-11-22T20:09:02.967Z,8.98
2022-11-22T20:11:30.933Z,8.96
2022-11-22T20:13:58.836Z,9.13
2022-11-22T20:16:28.341Z,9.17
2022-11-22T20:18:57.229Z,9.24
2022-11-22T20:21:26.347Z,9.23
2022-11-22T20:23:55.095Z,9.18
2022-11-22T20:26:25.253Z,9.28
2022-11-22T20:28:56.866Z,9.23
2022-11-22T20:31:25.016Z,9.21
2022-11-22T20:33:54.461Z,9.13
2022-11-22T20:36:24.292Z,9.25
2022-11-22T20:38:52.883Z,9.11
2022-11-22T20:41:22.976Z,9.29
2022-11-22T20:43:52.805Z,9.48
2022-11-22T20:46:22.086Z,9.44
2022-11-22T20:48:50.482Z,9.34
2022-11-22T20:51:22.677Z,9.51
2022-11-22T20:53:50.648Z,9.55
2022-11-22T20:56:18.933Z,9.50
2022-11-22T20:58:46.990Z,9.63
2022-11-22T21:01:18.413Z,9.63
2022-11-22T21:03:46.794Z,9.52
2022-11-22T21:06:15.935Z,9.50
2022-11-22T21:08:45.303Z,9.50
2022-11-22T21:11:15.918Z,9.45
2022-11-22T21:13:44.607Z,9.53
2022-11-22T21:16:22.925Z,9.37
2022-11-22T21:18:53.798Z,9.45
2022-11-22T21:21:24.016Z,9.38
2022-11-22T21:23:53.488Z,9.26
2022-11-22T21:26:22.373Z,9.34
2022-11-22T21:28:50.773Z,9.42
2022-11-22T21:31:18.827Z,9.43
2022-11-22T21:33:47.142Z,9.52
2022-11-22T21:36:16.700Z,9.47
2022-11-22T21:38:44.658Z,9.46
2022-11-22T21:44:05.647Z,9.46
2022-11-22T21:46:33.504Z,9.51
2022-11-22T21:49:01.361Z,9.55
2022-11-22T21:51:30.617Z,9.55
2022-11-22T21:53:59.391Z,9.45
2022-11-22T21:56:27.679Z,9.58
2022-11-22T21:58:55.647Z,9.60
2022-11-22T22:01:23.911Z,9.63
2022-11-22T22:03:51.958Z,9.61
2022-11-22T22:06:20.287Z,9.57
2022-11-22T22:08:49.687Z,9.25
2022-11-22T22:11:17.823Z,9.42
2022-11-22T22:13:45.703Z,9.42
2022-11-22T22:16:18.919Z,9.44
2022-11-22T22:18:47.403Z,9.50
2022-11-22T22:21:16.172Z,9.53
2022-11-22T22:23:45.107Z,9.52
2022-11-22T22:26:16.025Z,9.52
2022-11-22T22:28:45.065Z,9.51
2022-11-22T22:31:16.853Z,9.39
2022-11-22T22:33:46.598Z,9.36
2022-11-22T22:36:15.196Z,9.32
2022-11-22T22:38:43.231Z,9.40
2022-11-22T22:41:12.874Z,9.48
2022-11-22T22:43:43.870Z,9.39
2022-11-22T22:46:13.679Z,9.51
2022-11-22T22:48:41.749Z,9.46
2022-11-22T22:51:12.808Z,9.42
2022-11-22T22:53:41.003Z,9.47
2022-11-22T22:56:10.570Z,9.31
2022-11-22T22:58:38.511Z,9.12
2022-11-22T23:01:09.804Z,9.30
2022-11-22T23:03:38.052Z,9.28
2022-11-22T23:06:07.369Z,9.27
2022-11-22T23:08:35.592Z,9.32
2022-11-22T23:11:05.251Z,9.30
2022-11-22T23:13:33.828Z,9.42
2022-11-22T23:16:02.077Z,9.42
2022-11-22T23:18:31.365Z,9.38
2022-11-22T23:21:00.448Z,9.51
2022-11-22T23:23:29.282Z,9.49
2022-11-22T23:25:57.162Z,9.38
2022-11-22T23:28:25.027Z,9.42
2022-11-22T23:30:53.447Z,9.69
2022-11-22T23:33:21.474Z,9.84
2022-11-22T23:35:50.890Z,9.70
2022-11-22T23:38:19.057Z,9.80
2022-11-22T23:40:53.963Z,9.85
2022-11-22T23:43:21.902Z,9.75
2022-11-22T23:45:49.882Z,9.70
2022-11-22T23:48:18.137Z,9.67
2022-11-22T23:50:46.165Z,9.62
2022-11-22T23:53:15.454Z,9.60
2022-11-22T23:55:43.481Z,9.82
2022-11-22T23:58:11.441Z,9.72
